sensor_id;sensor_type;location;lat;lon;timestamp;P1;durP1;ratioP1;P2;durP2;ratioP2
4047;SDS011;2038;51.728;6.674;2023-05-07T00:01:18;12.47;;;10.03;;
4047;SDS011;2038;51.728;6.674;2023-05-07T00:03:44;12.83;;;9.97;;
4047;SDS011;2038;51.728;6.674;2023-05-07T00:06:10;10.60;;;9.60;;
4047;SDS011;2038;51.728;6.674;2023-05-07T00:08:37;14.03;;;11.07;;
4047;SDS011;2038;51.728;6.674;2023-05-07T00:11:03;10.03;;;9.03;;
4047;SDS011;2038;51.728;6.674;2023-05-07T00:13:30;16.13;;;11.10;;
4047;SDS011;2038;51.728;6.674;2023-05-07T00:16:00;10.77;;;9.67;;
4047;SDS011;2038;51.728;6.674;2023-05-07T00:18:30;11.80;;;9.83;;
4047;SDS011;2038;51.728;6.674;2023-05-07T00:20:56;10.20;;;9.30;;
4047;SDS011;2038;51.728;6.674;2023-05-07T00:23:22;11.47;;;7.93;;
4047;SDS011;2038;51.728;6.674;2023-05-07T00:25:49;11.67;;;8.03;;
4047;SDS011;2038;51.728;6.674;2023-05-07T00:28:15;10.67;;;9.57;;
4047;SDS011;2038;51.728;6.674;2023-05-07T00:30:41;10.43;;;9.03;;
4047;SDS011;2038;51.728;6.674;2023-05-07T00:33:07;10.30;;;9.30;;
4047;SDS011;2038;51.728;6.674;2023-05-07T00:35:34;10.70;;;9.60;;
4047;SDS011;2038;51.728;6.674;2023-05-07T00:38:00;9.90;;;8.90;;
4047;SDS011;2038;51.728;6.674;2023-05-07T00:40:26;9.80;;;8.83;;
4047;SDS011;2038;51.728;6.674;2023-05-07T00:42:52;13.17;;;10.90;;
4047;SDS011;2038;51.728;6.674;2023-05-07T00:45:21;12.27;;;10.90;;
4047;SDS011;2038;51.728;6.674;2023-05-07T00:47:51;16.90;;;11.87;;
4047;SDS011;2038;51.728;6.674;2023-05-07T00:50:23;13.73;;;12.33;;
4047;SDS011;2038;51.728;6.674;2023-05-07T00:52:50;13.13;;;11.20;;
4047;SDS011;2038;51.728;6.674;2023-05-07T00:55:18;12.70;;;10.67;;
4047;SDS011;2038;51.728;6.674;2023-05-07T00:57:45;18.33;;;11.77;;
4047;SDS011;2038;51.728;6.674;2023-05-07T01:00:11;14.10;;;12.20;;
4047;SDS011;2038;51.728;6.674;2023-05-07T01:02:41;15.90;;;12.70;;
4047;SDS011;2038;51.728;6.674;2023-05-07T01:05:09;13.03;;;11.70;;
4047;SDS011;2038;51.728;6.674;2023-05-07T01:07:40;14.07;;;12.30;;
4047;SDS011;2038;51.728;6.674;2023-05-07T01:10:08;13.90;;;12.23;;
4047;SDS011;2038;51.728;6.674;2023-05-07T01:12:37;14.13;;;12.07;;
4047;SDS011;2038;51.728;6.674;2023-05-07T01:15:07;14.50;;;12.57;;
4047;SDS011;2038;51.728;6.674;2023-05-07T01:17:35;17.87;;;14.43;;
4047;SDS011;2038;51.728;6.674;2023-05-07T01:20:05;14.07;;;12.60;;
4047;SDS011;2038;51.728;6.674;2023-05-07T01:22:39;18.20;;;15.17;;
4047;SDS011;2038;51.728;6.674;2023-05-07T01:25:06;19.37;;;14.37;;
4047;SDS011;2038;51.728;6.674;2023-05-07T01:27:33;21.00;;;14.90;;
4047;SDS011;2038;51.728;6.674;2023-05-07T01:30:01;18.90;;;14.83;;
4047;SDS011;2038;51.728;6.674;2023-05-07T01:32:32;18.30;;;14.47;;
4047;SDS011;2038;51.728;6.674;2023-05-07T01:35:05;16.93;;;14.50;;
4047;SDS011;2038;51.728;6.674;2023-05-07T01:37:39;17.10;;;15.30;;
4047;SDS011;2038;51.728;6.674;2023-05-07T01:40:06;18.33;;;15.80;;
4047;SDS011;2038;51.728;6.674;2023-05-07T01:42:34;17.40;;;15.10;;
4047;SDS011;2038;51.728;6.674;2023-05-07T01:45:01;21.70;;;17.40;;
4047;SDS011;2038;51.728;6.674;2023-05-07T01:47:28;18.73;;;15.70;;
4047;SDS011;2038;51.728;6.674;2023-05-07T01:49:55;24.40;;;17.90;;
4047;SDS011;2038;51.728;6.674;2023-05-07T01:52:23;21.50;;;17.37;;
4047;SDS011;2038;51.728;6.674;2023-05-07T01:54:50;23.70;;;20.30;;
4047;SDS011;2038;51.728;6.674;2023-05-07T01:57:16;20.60;;;18.60;;
4047;SDS011;2038;51.728;6.674;2023-05-07T01:59:42;26.43;;;19.53;;
4047;SDS011;2038;51.728;6.674;2023-05-07T02:02:08;22.60;;;18.30;;
4047;SDS011;2038;51.728;6.674;2023-05-07T02:04:34;22.00;;;19.67;;
4047;SDS011;2038;51.728;6.674;2023-05-07T02:07:01;28.40;;;19.30;;
4047;SDS011;2038;51.728;6.674;2023-05-07T02:09:27;23.83;;;18.57;;
4047;SDS011;2038;51.728;6.674;2023-05-07T02:11:53;23.10;;;18.70;;
4047;SDS011;2038;51.728;6.674;2023-05-07T02:14:20;21.23;;;18.60;;
4047;SDS011;2038;51.728;6.674;2023-05-07T02:16:46;23.40;;;20.70;;
4047;SDS011;2038;51.728;6.674;2023-05-07T02:19:12;31.63;;;21.87;;
4047;SDS011;2038;51.728;6.674;2023-05-07T02:21:38;25.00;;;21.97;;
4047;SDS011;2038;51.728;6.674;2023-05-07T02:24:05;28.90;;;22.53;;
4047;SDS011;2038;51.728;6.674;2023-05-07T02:26:31;24.93;;;19.53;;
4047;SDS011;2038;51.728;6.674;2023-05-07T02:28:57;22.53;;;20.10;;
4047;SDS011;2038;51.728;6.674;2023-05-07T02:31:23;25.70;;;20.93;;
4047;SDS011;2038;51.728;6.674;2023-05-07T02:33:50;25.00;;;20.00;;
4047;SDS011;2038;51.728;6.674;2023-05-07T02:36:16;24.40;;;20.93;;
4047;SDS011;2038;51.728;6.674;2023-05-07T02:38:42;28.17;;;18.23;;
4047;SDS011;2038;51.728;6.674;2023-05-07T02:41:08;20.20;;;17.80;;
4047;SDS011;2038;51.728;6.674;2023-05-07T02:43:35;18.73;;;16.73;;
4047;SDS011;2038;51.728;6.674;2023-05-07T02:48:32;19.70;;;17.20;;
4047;SDS011;2038;51.728;6.674;2023-05-07T02:50:59;19.07;;;16.70;;
4047;SDS011;2038;51.728;6.674;2023-05-07T02:53:26;19.07;;;17.07;;
4047;SDS011;2038;51.728;6.674;2023-05-07T02:55:53;21.07;;;18.47;;
4047;SDS011;2038;51.728;6.674;2023-05-07T02:58:24;20.67;;;18.60;;
4047;SDS011;2038;51.728;6.674;2023-05-07T03:00:51;27.10;;;19.00;;
4047;SDS011;2038;51.728;6.674;2023-05-07T03:03:19;20.30;;;18.20;;
4047;SDS011;2038;51.728;6.674;2023-05-07T03:05:46;20.67;;;18.33;;
4047;SDS011;2038;51.728;6.674;2023-05-07T03:08:12;24.30;;;19.03;;
4047;SDS011;2038;51.728;6.674;2023-05-07T03:10:38;25.97;;;19.87;;
4047;SDS011;2038;51.728;6.674;2023-05-07T03:13:05;23.60;;;19.50;;
4047;SDS011;2038;51.728;6.674;2023-05-07T03:15:31;25.37;;;19.27;;
4047;SDS011;2038;51.728;6.674;2023-05-07T03:17:57;22.57;;;18.13;;
4047;SDS011;2038;51.728;6.674;2023-05-07T03:20:23;22.77;;;18.90;;
4047;SDS011;2038;51.728;6.674;2023-05-07T03:22:49;20.13;;;17.93;;
4047;SDS011;2038;51.728;6.674;2023-05-07T03:25:16;26.97;;;19.60;;
4047;SDS011;2038;51.728;6.674;2023-05-07T03:27:42;22.43;;;19.30;;
4047;SDS011;2038;51.728;6.674;2023-05-07T03:30:08;22.07;;;19.67;;
4047;SDS011;2038;51.728;6.674;2023-05-07T03:32:36;19.80;;;16.97;;
4047;SDS011;2038;51.728;6.674;2023-05-07T03:35:02;20.27;;;18.13;;
4047;SDS011;2038;51.728;6.674;2023-05-07T03:37:29;24.00;;;19.40;;
4047;SDS011;2038;51.728;6.674;2023-05-07T03:39:55;22.80;;;18.53;;
4047;SDS011;2038;51.728;6.674;2023-05-07T03:42:21;24.30;;;21.00;;
4047;SDS011;2038;51.728;6.674;2023-05-07T03:44:49;23.17;;;18.57;;
4047;SDS011;2038;51.728;6.674;2023-05-07T03:47:15;21.60;;;18.60;;
4047;SDS011;2038;51.728;6.674;2023-05-07T03:49:41;23.70;;;19.73;;
4047;SDS011;2038;51.728;6.674;2023-05-07T03:52:08;26.50;;;20.87;;
4047;SDS011;2038;51.728;6.674;2023-05-07T03:54:34;22.30;;;18.80;;
4047;SDS011;2038;51.728;6.674;2023-05-07T03:57:00;23.03;;;20.07;;
4047;SDS011;2038;51.728;6.674;2023-05-07T03:59:26;24.07;;;20.47;;
4047;SDS011;2038;51.728;6.674;2023-05-07T04:01:53;22.87;;;19.67;;
4047;SDS011;2038;51.728;6.674;2023-05-07T04:04:19;24.70;;;20.07;;
4047;SDS011;2038;51.728;6.674;2023-05-07T04:06:46;29.30;;;20.93;;
4047;SDS011;2038;51.728;6.674;2023-05-07T04:09:12;23.87;;;20.30;;
4047;SDS011;2038;51.728;6.674;2023-05-07T04:11:39;25.33;;;19.73;;
4047;SDS011;2038;51.728;6.674;2023-05-07T04:14:05;24.83;;;20.77;;
4047;SDS011;2038;51.728;6.674;2023-05-07T04:16:31;23.80;;;18.90;;
4047;SDS011;2038;51.728;6.674;2023-05-07T04:18:59;26.93;;;20.60;;
4047;SDS011;2038;51.728;6.674;2023-05-07T04:21:26;26.83;;;20.87;;
4047;SDS011;2038;51.728;6.674;2023-05-07T04:23:52;24.80;;;18.13;;
4047;SDS011;2038;51.728;6.674;2023-05-07T04:26:18;23.80;;;18.90;;
4047;SDS011;2038;51.728;6.674;2023-05-07T04:28:46;21.63;;;19.43;;
4047;SDS011;2038;51.728;6.674;2023-05-07T04:31:12;20.40;;;16.90;;
4047;SDS011;2038;51.728;6.674;2023-05-07T04:33:38;19.23;;;16.93;;
4047;SDS011;2038;51.728;6.674;2023-05-07T04:36:04;20.77;;;17.00;;
4047;SDS011;2038;51.728;6.674;2023-05-07T04:38:31;22.17;;;18.60;;
4047;SDS011;2038;51.728;6.674;2023-05-07T04:40:58;21.17;;;16.97;;
4047;SDS011;2038;51.728;6.674;2023-05-07T04:43:30;21.43;;;18.33;;
4047;SDS011;2038;51.728;6.674;2023-05-07T04:45:56;23.27;;;18.57;;
4047;SDS011;2038;51.728;6.674;2023-05-07T04:48:22;22.93;;;17.50;;
4047;SDS011;2038;51.728;6.674;2023-05-07T04:50:51;24.23;;;19.67;;
4047;SDS011;2038;51.728;6.674;2023-05-07T04:53:18;19.27;;;16.13;;
4047;SDS011;2038;51.728;6.674;2023-05-07T04:55:45;23.07;;;19.30;;
4047;SDS011;2038;51.728;6.674;2023-05-07T04:58:11;19.67;;;17.07;;
4047;SDS011;2038;51.728;6.674;2023-05-07T05:00:37;20.23;;;17.00;;
4047;SDS011;2038;51.728;6.674;2023-05-07T05:03:06;20.63;;;18.43;;
4047;SDS011;2038;51.728;6.674;2023-05-07T05:05:32;20.70;;;16.50;;
4047;SDS011;2038;51.728;6.674;2023-05-07T05:07:58;19.97;;;16.40;;
4047;SDS011;2038;51.728;6.674;2023-05-07T05:10:25;17.17;;;15.27;;
4047;SDS011;2038;51.728;6.674;2023-05-07T05:12:51;18.83;;;16.03;;
4047;SDS011;2038;51.728;6.674;2023-05-07T05:15:17;18.43;;;16.37;;
4047;SDS011;2038;51.728;6.674;2023-05-07T05:17:44;21.57;;;15.20;;
4047;SDS011;2038;51.728;6.674;2023-05-07T05:20:10;19.80;;;15.57;;
4047;SDS011;2038;51.728;6.674;2023-05-07T05:22:36;23.03;;;16.47;;
4047;SDS011;2038;51.728;6.674;2023-05-07T05:25:03;18.30;;;14.93;;
4047;SDS011;2038;51.728;6.674;2023-05-07T05:27:30;25.03;;;15.70;;
4047;SDS011;2038;51.728;6.674;2023-05-07T05:29:56;18.80;;;16.37;;
4047;SDS011;2038;51.728;6.674;2023-05-07T05:32:22;17.20;;;15.50;;
4047;SDS011;2038;51.728;6.674;2023-05-07T05:34:48;18.17;;;16.27;;
4047;SDS011;2038;51.728;6.674;2023-05-07T05:37:15;17.50;;;14.67;;
4047;SDS011;2038;51.728;6.674;2023-05-07T05:39:42;16.50;;;14.63;;
4047;SDS011;2038;51.728;6.674;2023-05-07T05:42:08;17.93;;;16.10;;
4047;SDS011;2038;51.728;6.674;2023-05-07T05:44:34;18.90;;;16.77;;
4047;SDS011;2038;51.728;6.674;2023-05-07T05:47:00;19.57;;;15.33;;
4047;SDS011;2038;51.728;6.674;2023-05-07T05:49:27;18.83;;;15.20;;
4047;SDS011;2038;51.728;6.674;2023-05-07T05:51:54;19.33;;;14.60;;
4047;SDS011;2038;51.728;6.674;2023-05-07T05:54:21;17.50;;;14.83;;
4047;SDS011;2038;51.728;6.674;2023-05-07T05:56:47;17.23;;;14.83;;
4047;SDS011;2038;51.728;6.674;2023-05-07T05:59:14;16.87;;;14.90;;
4047;SDS011;2038;51.728;6.674;2023-05-07T06:01:40;26.10;;;16.67;;
4047;SDS011;2038;51.728;6.674;2023-05-07T06:04:07;20.87;;;17.70;;
4047;SDS011;2038;51.728;6.674;2023-05-07T06:06:33;17.77;;;14.20;;
4047;SDS011;2038;51.728;6.674;2023-05-07T06:08:59;17.10;;;14.67;;
4047;SDS011;2038;51.728;6.674;2023-05-07T06:11:25;17.93;;;14.77;;
4047;SDS011;2038;51.728;6.674;2023-05-07T06:13:52;17.33;;;14.50;;
4047;SDS011;2038;51.728;6.674;2023-05-07T06:16:18;19.10;;;16.40;;
4047;SDS011;2038;51.728;6.674;2023-05-07T06:18:44;20.63;;;15.43;;
4047;SDS011;2038;51.728;6.674;2023-05-07T06:21:11;18.83;;;15.33;;
4047;SDS011;2038;51.728;6.674;2023-05-07T06:23:39;18.17;;;16.23;;
4047;SDS011;2038;51.728;6.674;2023-05-07T06:26:05;18.43;;;14.10;;
4047;SDS011;2038;51.728;6.674;2023-05-07T06:28:32;18.23;;;14.70;;
4047;SDS011;2038;51.728;6.674;2023-05-07T06:31:17;15.37;;;13.63;;
4047;SDS011;2038;51.728;6.674;2023-05-07T06:33:47;17.13;;;14.63;;
4047;SDS011;2038;51.728;6.674;2023-05-07T06:36:14;16.40;;;14.70;;
4047;SDS011;2038;51.728;6.674;2023-05-07T06:38:41;20.83;;;14.90;;
4047;SDS011;2038;51.728;6.674;2023-05-07T06:41:07;16.00;;;13.30;;
4047;SDS011;2038;51.728;6.674;2023-05-07T06:43:33;15.83;;;13.30;;
4047;SDS011;2038;51.728;6.674;2023-05-07T06:46:00;16.07;;;13.80;;
4047;SDS011;2038;51.728;6.674;2023-05-07T06:48:26;17.10;;;13.67;;
4047;SDS011;2038;51.728;6.674;2023-05-07T06:50:53;15.53;;;13.93;;
4047;SDS011;2038;51.728;6.674;2023-05-07T06:53:20;14.80;;;13.20;;
4047;SDS011;2038;51.728;6.674;2023-05-07T06:55:46;16.63;;;13.00;;
4047;SDS011;2038;51.728;6.674;2023-05-07T06:58:13;18.70;;;14.27;;
4047;SDS011;2038;51.728;6.674;2023-05-07T07:00:39;15.33;;;12.40;;
4047;SDS011;2038;51.728;6.674;2023-05-07T07:03:05;14.17;;;12.60;;
4047;SDS011;2038;51.728;6.674;2023-05-07T07:05:32;19.43;;;13.27;;
4047;SDS011;2038;51.728;6.674;2023-05-07T07:07:58;14.67;;;12.37;;
4047;SDS011;2038;51.728;6.674;2023-05-07T07:10:24;14.20;;;12.70;;
4047;SDS011;2038;51.728;6.674;2023-05-07T07:12:51;16.03;;;12.20;;
4047;SDS011;2038;51.728;6.674;2023-05-07T07:15:19;14.13;;;12.63;;
4047;SDS011;2038;51.728;6.674;2023-05-07T07:17:46;15.03;;;13.30;;
4047;SDS011;2038;51.728;6.674;2023-05-07T07:20:13;13.80;;;11.80;;
4047;SDS011;2038;51.728;6.674;2023-05-07T07:22:39;13.17;;;11.70;;
4047;SDS011;2038;51.728;6.674;2023-05-07T07:25:05;16.63;;;14.17;;
4047;SDS011;2038;51.728;6.674;2023-05-07T07:27:32;14.93;;;11.90;;
4047;SDS011;2038;51.728;6.674;2023-05-07T07:29:58;14.37;;;12.03;;
4047;SDS011;2038;51.728;6.674;2023-05-07T07:32:24;15.60;;;12.23;;
4047;SDS011;2038;51.728;6.674;2023-05-07T07:34:51;12.93;;;11.63;;
4047;SDS011;2038;51.728;6.674;2023-05-07T07:37:17;12.80;;;11.50;;
4047;SDS011;2038;51.728;6.674;2023-05-07T07:39:43;14.87;;;11.13;;
4047;SDS011;2038;51.728;6.674;2023-05-07T07:42:10;14.77;;;10.17;;
4047;SDS011;2038;51.728;6.674;2023-05-07T07:44:36;14.20;;;11.70;;
4047;SDS011;2038;51.728;6.674;2023-05-07T07:47:04;13.63;;;11.70;;
4047;SDS011;2038;51.728;6.674;2023-05-07T07:49:30;14.07;;;11.07;;
4047;SDS011;2038;51.728;6.674;2023-05-07T07:51:56;16.80;;;12.93;;
4047;SDS011;2038;51.728;6.674;2023-05-07T07:54:24;12.30;;;11.00;;
4047;SDS011;2038;51.728;6.674;2023-05-07T07:56:50;11.57;;;9.63;;
4047;SDS011;2038;51.728;6.674;2023-05-07T07:59:16;13.20;;;9.33;;
4047;SDS011;2038;51.728;6.674;2023-05-07T08:01:44;11.37;;;10.13;;
4047;SDS011;2038;51.728;6.674;2023-05-07T08:04:10;15.80;;;11.37;;
4047;SDS011;2038;51.728;6.674;2023-05-07T08:06:36;13.20;;;10.77;;
4047;SDS011;2038;51.728;6.674;2023-05-07T08:09:02;13.70;;;10.60;;
4047;SDS011;2038;51.728;6.674;2023-05-07T08:11:29;11.00;;;9.87;;
4047;SDS011;2038;51.728;6.674;2023-05-07T08:13:55;12.03;;;9.57;;
4047;SDS011;2038;51.728;6.674;2023-05-07T08:16:22;13.93;;;10.23;;
4047;SDS011;2038;51.728;6.674;2023-05-07T08:18:48;9.93;;;9.03;;
4047;SDS011;2038;51.728;6.674;2023-05-07T08:21:14;13.50;;;9.90;;
4047;SDS011;2038;51.728;6.674;2023-05-07T08:23:40;11.77;;;10.60;;
4047;SDS011;2038;51.728;6.674;2023-05-07T08:26:07;11.50;;;10.10;;
4047;SDS011;2038;51.728;6.674;2023-05-07T08:28:33;12.33;;;11.10;;
4047;SDS011;2038;51.728;6.674;2023-05-07T08:31:00;11.43;;;10.30;;
4047;SDS011;2038;51.728;6.674;2023-05-07T08:33:26;10.87;;;9.87;;
4047;SDS011;2038;51.728;6.674;2023-05-07T08:35:52;12.37;;;10.10;;
4047;SDS011;2038;51.728;6.674;2023-05-07T08:38:19;11.80;;;10.10;;
4047;SDS011;2038;51.728;6.674;2023-05-07T08:40:45;10.27;;;9.27;;
4047;SDS011;2038;51.728;6.674;2023-05-07T08:43:13;12.10;;;10.80;;
4047;SDS011;2038;51.728;6.674;2023-05-07T08:45:40;10.87;;;9.43;;
4047;SDS011;2038;51.728;6.674;2023-05-07T08:48:14;13.50;;;9.37;;
4047;SDS011;2038;51.728;6.674;2023-05-07T08:50:42;11.10;;;8.80;;
4047;SDS011;2038;51.728;6.674;2023-05-07T08:53:08;13.07;;;9.43;;
4047;SDS011;2038;51.728;6.674;2023-05-07T08:55:34;10.80;;;9.60;;
4047;SDS011;2038;51.728;6.674;2023-05-07T08:58:00;13.67;;;8.57;;
4047;SDS011;2038;51.728;6.674;2023-05-07T09:00:27;10.37;;;9.27;;
4047;SDS011;2038;51.728;6.674;2023-05-07T09:02:53;15.37;;;9.70;;
4047;SDS011;2038;51.728;6.674;2023-05-07T09:05:19;10.30;;;9.23;;
4047;SDS011;2038;51.728;6.674;2023-05-07T09:07:45;11.30;;;8.97;;
4047;SDS011;2038;51.728;6.674;2023-05-07T09:10:12;12.27;;;10.00;;
4047;SDS011;2038;51.728;6.674;2023-05-07T09:12:39;12.00;;;9.50;;
4047;SDS011;2038;51.728;6.674;2023-05-07T09:15:06;10.37;;;9.37;;
4047;SDS011;2038;51.728;6.674;2023-05-07T09:17:33;9.83;;;8.73;;
4047;SDS011;2038;51.728;6.674;2023-05-07T09:20:02;9.80;;;8.80;;
4047;SDS011;2038;51.728;6.674;2023-05-07T09:22:34;13.77;;;10.20;;
4047;SDS011;2038;51.728;6.674;2023-05-07T09:25:03;11.03;;;9.53;;
4047;SDS011;2038;51.728;6.674;2023-05-07T09:27:31;9.50;;;7.80;;
4047;SDS011;2038;51.728;6.674;2023-05-07T09:29:58;12.07;;;9.00;;
4047;SDS011;2038;51.728;6.674;2023-05-07T09:32:24;9.33;;;8.33;;
4047;SDS011;2038;51.728;6.674;2023-05-07T09:34:52;16.60;;;8.20;;
4047;SDS011;2038;51.728;6.674;2023-05-07T09:37:19;13.87;;;9.17;;
4047;SDS011;2038;51.728;6.674;2023-05-07T09:39:46;11.00;;;9.37;;
4047;SDS011;2038;51.728;6.674;2023-05-07T09:42:14;11.73;;;9.70;;
4047;SDS011;2038;51.728;6.674;2023-05-07T09:44:41;11.50;;;9.00;;
4047;SDS011;2038;51.728;6.674;2023-05-07T09:47:10;11.77;;;9.87;;
4047;SDS011;2038;51.728;6.674;2023-05-07T09:49:37;11.63;;;10.30;;
4047;SDS011;2038;51.728;6.674;2023-05-07T09:52:07;10.53;;;9.37;;
4047;SDS011;2038;51.728;6.674;2023-05-07T09:54:35;10.23;;;8.30;;
4047;SDS011;2038;51.728;6.674;2023-05-07T09:57:05;12.33;;;9.67;;
4047;SDS011;2038;51.728;6.674;2023-05-07T09:59:33;14.33;;;9.97;;
4047;SDS011;2038;51.728;6.674;2023-05-07T10:02:03;10.07;;;8.93;;
4047;SDS011;2038;51.728;6.674;2023-05-07T10:04:30;11.40;;;10.20;;
4047;SDS011;2038;51.728;6.674;2023-05-07T10:06:57;10.20;;;9.20;;
4047;SDS011;2038;51.728;6.674;2023-05-07T10:09:25;11.53;;;10.10;;
4047;SDS011;2038;51.728;6.674;2023-05-07T10:11:52;11.13;;;10.03;;
4047;SDS011;2038;51.728;6.674;2023-05-07T10:14:20;11.50;;;9.90;;
4047;SDS011;2038;51.728;6.674;2023-05-07T10:16:47;10.60;;;9.60;;
4047;SDS011;2038;51.728;6.674;2023-05-07T10:19:14;9.73;;;8.60;;
4047;SDS011;2038;51.728;6.674;2023-05-07T10:21:48;10.10;;;9.10;;
4047;SDS011;2038;51.728;6.674;2023-05-07T10:24:23;17.17;;;11.80;;
4047;SDS011;2038;51.728;6.674;2023-05-07T10:26:56;12.07;;;10.27;;
4047;SDS011;2038;51.728;6.674;2023-05-07T10:32:47;10.57;;;9.47;;
4047;SDS011;2038;51.728;6.674;2023-05-07T10:35:21;15.27;;;10.70;;
4047;SDS011;2038;51.728;6.674;2023-05-07T10:37:56;8.97;;;8.07;;
4047;SDS011;2038;51.728;6.674;2023-05-07T10:40:23;10.50;;;9.47;;
4047;SDS011;2038;51.728;6.674;2023-05-07T10:42:53;9.90;;;8.90;;
4047;SDS011;2038;51.728;6.674;2023-05-07T10:45:27;10.67;;;9.40;;
4047;SDS011;2038;51.728;6.674;2023-05-07T10:48:07;13.60;;;9.20;;
4047;SDS011;2038;51.728;6.674;2023-05-07T10:50:41;12.27;;;10.80;;
4047;SDS011;2038;51.728;6.674;2023-05-07T10:55:43;9.53;;;8.60;;
4047;SDS011;2038;51.728;6.674;2023-05-07T10:58:53;11.30;;;8.90;;
4047;SDS011;2038;51.728;6.674;2023-05-07T11:01:49;11.40;;;9.37;;
4047;SDS011;2038;51.728;6.674;2023-05-07T11:04:29;9.80;;;8.33;;
4047;SDS011;2038;51.728;6.674;2023-05-07T11:10:00;9.53;;;8.63;;
4047;SDS011;2038;51.728;6.674;2023-05-07T11:15:08;11.07;;;9.00;;
4047;SDS011;2038;51.728;6.674;2023-05-07T11:17:52;10.50;;;8.60;;
4047;SDS011;2038;51.728;6.674;2023-05-07T11:20:20;10.53;;;7.67;;
4047;SDS011;2038;51.728;6.674;2023-05-07T11:26:05;10.27;;;7.10;;
4047;SDS011;2038;51.728;6.674;2023-05-07T11:28:40;10.10;;;7.53;;
4047;SDS011;2038;51.728;6.674;2023-05-07T11:31:07;13.70;;;8.20;;
4047;SDS011;2038;51.728;6.674;2023-05-07T11:33:35;9.10;;;7.00;;
4047;SDS011;2038;51.728;6.674;2023-05-07T11:36:03;8.13;;;6.60;;
4047;SDS011;2038;51.728;6.674;2023-05-07T11:38:36;9.90;;;7.33;;
4047;SDS011;2038;51.728;6.674;2023-05-07T11:41:03;7.10;;;6.40;;
4047;SDS011;2038;51.728;6.674;2023-05-07T11:43:31;8.47;;;6.80;;
4047;SDS011;2038;51.728;6.674;2023-05-07T11:46:18;9.40;;;6.87;;
4047;SDS011;2038;51.728;6.674;2023-05-07T11:48:45;7.60;;;6.90;;
4047;SDS011;2038;51.728;6.674;2023-05-07T11:51:11;8.73;;;6.30;;
4047;SDS011;2038;51.728;6.674;2023-05-07T11:53:39;9.40;;;6.27;;
4047;SDS011;2038;51.728;6.674;2023-05-07T11:56:07;11.03;;;6.63;;
4047;SDS011;2038;51.728;6.674;2023-05-07T11:58:35;9.93;;;8.50;;
4047;SDS011;2038;51.728;6.674;2023-05-07T12:01:02;7.30;;;6.53;;
4047;SDS011;2038;51.728;6.674;2023-05-07T12:03:29;8.33;;;6.93;;
4047;SDS011;2038;51.728;6.674;2023-05-07T12:05:55;7.70;;;6.53;;
4047;SDS011;2038;51.728;6.674;2023-05-07T12:08:22;10.23;;;6.90;;
4047;SDS011;2038;51.728;6.674;2023-05-07T12:10:49;8.60;;;6.73;;
4047;SDS011;2038;51.728;6.674;2023-05-07T12:13:16;8.93;;;6.33;;
4047;SDS011;2038;51.728;6.674;2023-05-07T12:15:53;8.00;;;5.90;;
4047;SDS011;2038;51.728;6.674;2023-05-07T12:18:21;7.20;;;5.60;;
4047;SDS011;2038;51.728;6.674;2023-05-07T12:20:48;10.60;;;7.50;;
4047;SDS011;2038;51.728;6.674;2023-05-07T12:23:16;8.53;;;6.13;;
4047;SDS011;2038;51.728;6.674;2023-05-07T12:25:43;17.30;;;7.40;;
4047;SDS011;2038;51.728;6.674;2023-05-07T12:28:16;9.27;;;6.03;;
4047;SDS011;2038;51.728;6.674;2023-05-07T12:30:44;9.00;;;5.87;;
4047;SDS011;2038;51.728;6.674;2023-05-07T12:33:16;9.30;;;6.03;;
4047;SDS011;2038;51.728;6.674;2023-05-07T12:35:49;8.37;;;6.70;;
4047;SDS011;2038;51.728;6.674;2023-05-07T12:38:18;9.33;;;6.40;;
4047;SDS011;2038;51.728;6.674;2023-05-07T12:40:45;10.47;;;7.10;;
4047;SDS011;2038;51.728;6.674;2023-05-07T12:43:19;9.50;;;6.50;;
4047;SDS011;2038;51.728;6.674;2023-05-07T12:45:50;9.80;;;6.63;;
4047;SDS011;2038;51.728;6.674;2023-05-07T12:48:20;8.53;;;6.20;;
4047;SDS011;2038;51.728;6.674;2023-05-07T12:50:51;10.73;;;6.00;;
4047;SDS011;2038;51.728;6.674;2023-05-07T12:53:22;11.93;;;6.40;;
4047;SDS011;2038;51.728;6.674;2023-05-07T12:55:51;7.80;;;7.00;;
4047;SDS011;2038;51.728;6.674;2023-05-07T12:58:24;8.27;;;6.07;;
4047;SDS011;2038;51.728;6.674;2023-05-07T13:00:56;7.87;;;7.00;;
4047;SDS011;2038;51.728;6.674;2023-05-07T13:05:55;8.70;;;6.67;;
4047;SDS011;2038;51.728;6.674;2023-05-07T13:08:38;7.03;;;6.33;;
4047;SDS011;2038;51.728;6.674;2023-05-07T13:11:08;11.90;;;7.50;;
4047;SDS011;2038;51.728;6.674;2023-05-07T13:13:35;7.93;;;5.63;;
4047;SDS011;2038;51.728;6.674;2023-05-07T13:16:06;6.97;;;6.37;;
4047;SDS011;2038;51.728;6.674;2023-05-07T13:18:35;10.73;;;7.60;;
4047;SDS011;2038;51.728;6.674;2023-05-07T13:21:04;10.83;;;6.93;;
4047;SDS011;2038;51.728;6.674;2023-05-07T13:23:30;11.20;;;7.83;;
4047;SDS011;2038;51.728;6.674;2023-05-07T13:25:56;9.63;;;7.30;;
4047;SDS011;2038;51.728;6.674;2023-05-07T13:28:23;9.83;;;7.77;;
4047;SDS011;2038;51.728;6.674;2023-05-07T13:30:50;7.97;;;7.17;;
4047;SDS011;2038;51.728;6.674;2023-05-07T13:33:17;10.33;;;8.07;;
4047;SDS011;2038;51.728;6.674;2023-05-07T13:35:44;9.60;;;8.20;;
4047;SDS011;2038;51.728;6.674;2023-05-07T13:38:10;7.00;;;6.30;;
4047;SDS011;2038;51.728;6.674;2023-05-07T13:40:36;10.10;;;6.23;;
4047;SDS011;2038;51.728;6.674;2023-05-07T13:43:03;9.20;;;7.10;;
4047;SDS011;2038;51.728;6.674;2023-05-07T13:45:31;9.20;;;6.93;;
4047;SDS011;2038;51.728;6.674;2023-05-07T13:47:57;11.70;;;7.23;;
4047;SDS011;2038;51.728;6.674;2023-05-07T13:50:23;8.63;;;6.20;;
4047;SDS011;2038;51.728;6.674;2023-05-07T13:52:51;9.20;;;7.10;;
4047;SDS011;2038;51.728;6.674;2023-05-07T13:55:18;12.03;;;7.63;;
4047;SDS011;2038;51.728;6.674;2023-05-07T13:57:46;11.70;;;5.97;;
4047;SDS011;2038;51.728;6.674;2023-05-07T14:00:13;7.80;;;6.80;;
4047;SDS011;2038;51.728;6.674;2023-05-07T14:02:41;8.33;;;6.23;;
4047;SDS011;2038;51.728;6.674;2023-05-07T14:05:07;8.77;;;7.30;;
4047;SDS011;2038;51.728;6.674;2023-05-07T14:07:34;11.37;;;8.07;;
4047;SDS011;2038;51.728;6.674;2023-05-07T14:10:01;8.07;;;7.30;;
4047;SDS011;2038;51.728;6.674;2023-05-07T14:12:28;12.63;;;8.27;;
4047;SDS011;2038;51.728;6.674;2023-05-07T14:14:54;9.70;;;7.23;;
4047;SDS011;2038;51.728;6.674;2023-05-07T14:17:21;9.17;;;8.10;;
4047;SDS011;2038;51.728;6.674;2023-05-07T14:19:50;10.13;;;8.03;;
4047;SDS011;2038;51.728;6.674;2023-05-07T14:22:18;9.20;;;7.67;;
4047;SDS011;2038;51.728;6.674;2023-05-07T14:24:47;13.47;;;8.10;;
4047;SDS011;2038;51.728;6.674;2023-05-07T14:27:15;9.73;;;7.10;;
4047;SDS011;2038;51.728;6.674;2023-05-07T14:29:42;11.17;;;9.13;;
4047;SDS011;2038;51.728;6.674;2023-05-07T14:32:08;9.63;;;7.53;;
4047;SDS011;2038;51.728;6.674;2023-05-07T14:34:34;10.50;;;7.93;;
4047;SDS011;2038;51.728;6.674;2023-05-07T14:37:00;9.37;;;7.63;;
4047;SDS011;2038;51.728;6.674;2023-05-07T14:39:27;8.63;;;7.27;;
4047;SDS011;2038;51.728;6.674;2023-05-07T14:41:53;9.20;;;7.93;;
4047;SDS011;2038;51.728;6.674;2023-05-07T14:44:21;10.60;;;8.70;;
4047;SDS011;2038;51.728;6.674;2023-05-07T14:46:47;9.90;;;7.60;;
4047;SDS011;2038;51.728;6.674;2023-05-07T14:49:14;12.53;;;7.70;;
4047;SDS011;2038;51.728;6.674;2023-05-07T14:51:43;8.67;;;7.87;;
4047;SDS011;2038;51.728;6.674;2023-05-07T14:54:10;9.20;;;7.50;;
4047;SDS011;2038;51.728;6.674;2023-05-07T14:56:40;10.10;;;8.00;;
4047;SDS011;2038;51.728;6.674;2023-05-07T14:59:07;8.43;;;7.13;;
4047;SDS011;2038;51.728;6.674;2023-05-07T15:01:36;8.70;;;7.70;;
4047;SDS011;2038;51.728;6.674;2023-05-07T15:04:05;8.43;;;6.70;;
4047;SDS011;2038;51.728;6.674;2023-05-07T15:06:31;12.43;;;7.63;;
4047;SDS011;2038;51.728;6.674;2023-05-07T15:08:58;10.10;;;7.73;;
4047;SDS011;2038;51.728;6.674;2023-05-07T15:11:24;8.63;;;7.73;;
4047;SDS011;2038;51.728;6.674;2023-05-07T15:13:50;8.70;;;7.80;;
4047;SDS011;2038;51.728;6.674;2023-05-07T15:16:17;11.20;;;8.63;;
4047;SDS011;2038;51.728;6.674;2023-05-07T15:18:43;11.97;;;8.87;;
4047;SDS011;2038;51.728;6.674;2023-05-07T15:21:09;10.70;;;9.00;;